sensor_id;sensor_type;location;lat;lon;timestamp;pressure;altitude;pressure_sealevel;temperature;humidity
71151;BME280;59071;42.138;24.768;2024-01-25T00:00:04;100025.69;;;3.25;72.89
71151;BME280;59071;42.138;24.768;2024-01-25T00:02:30;100011.44;;;3.45;71.88
71151;BME280;59071;42.138;24.768;2024-01-25T00:04:55;100044.94;;;3.25;72.91
71151;BME280;59071;42.138;24.768;2024-01-25T00:07:21;100008.13;;;2.80;73.72
71151;BME280;59071;42.138;24.768;2024-01-25T00:09:46;99994.09;;;2.89;73.75
71151;BME280;59071;42.138;24.768;2024-01-25T00:12:11;99977.28;;;3.00;73.75
71151;BME280;59071;42.138;24.768;2024-01-25T00:14:37;99985.53;;;2.87;74.20
71151;BME280;59071;42.138;24.768;2024-01-25T00:17:02;99980.47;;;3.03;73.95
71151;BME280;59071;42.138;24.768;2024-01-25T00:19:28;99979.06;;;2.81;74.67
71151;BME280;59071;42.138;24.768;2024-01-25T00:21:53;99991.56;;;2.97;73.87
71151;BME280;59071;42.138;24.768;2024-01-25T00:24:19;99993.25;;;3.16;73.48
71151;BME280;59071;42.138;24.768;2024-01-25T00:26:44;99971.56;;;3.04;73.68
71151;BME280;59071;42.138;24.768;2024-01-25T00:29:09;99974.09;;;3.24;72.81
71151;BME280;59071;42.138;24.768;2024-01-25T00:31:35;99971.75;;;3.03;73.15
71151;BME280;59071;42.138;24.768;2024-01-25T00:34:02;99968.81;;;3.06;72.93
71151;BME280;59071;42.138;24.768;2024-01-25T00:36:28;99974.22;;;3.22;72.96
71151;BME280;59071;42.138;24.768;2024-01-25T00:38:53;99975.34;;;3.02;72.81
71151;BME280;59071;42.138;24.768;2024-01-25T00:41:19;99978.69;;;2.76;74.53
71151;BME280;59071;42.138;24.768;2024-01-25T00:43:45;99967.00;;;2.88;73.89
71151;BME280;59071;42.138;24.768;2024-01-25T00:46:11;99938.66;;;2.82;73.60
71151;BME280;59071;42.138;24.768;2024-01-25T00:48:37;99943.03;;;3.09;72.65
71151;BME280;59071;42.138;24.768;2024-01-25T00:51:07;99955.66;;;3.06;72.86
71151;BME280;59071;42.138;24.768;2024-01-25T00:53:32;99944.19;;;3.07;72.85
71151;BME280;59071;42.138;24.768;2024-01-25T00:55:58;99937.16;;;3.16;72.33
71151;BME280;59071;42.138;24.768;2024-01-25T00:58:24;99932.28;;;3.21;71.94
71151;BME280;59071;42.138;24.768;2024-01-25T01:00:50;99933.94;;;3.22;71.38
71151;BME280;59071;42.138;24.768;2024-01-25T01:03:18;99945.66;;;3.45;70.29
71151;BME280;59071;42.138;24.768;2024-01-25T01:05:44;99928.44;;;3.51;69.74
71151;BME280;59071;42.138;24.768;2024-01-25T01:08:10;99915.03;;;3.62;69.21
71151;BME280;59071;42.138;24.768;2024-01-25T01:10:36;99913.09;;;3.99;68.42
71151;BME280;59071;42.138;24.768;2024-01-25T01:13:01;99906.75;;;4.52;66.92
71151;BME280;59071;42.138;24.768;2024-01-25T01:15:27;99898.38;;;4.73;65.88
71151;BME280;59071;42.138;24.768;2024-01-25T01:17:52;99864.94;;;5.31;63.58
71151;BME280;59071;42.138;24.768;2024-01-25T01:20:18;99874.63;;;5.72;62.45
71151;BME280;59071;42.138;24.768;2024-01-25T01:22:43;99872.78;;;5.88;61.60
71151;BME280;59071;42.138;24.768;2024-01-25T01:25:08;99863.03;;;6.05;60.97
71151;BME280;59071;42.138;24.768;2024-01-25T01:27:35;99868.00;;;6.32;60.70
71151;BME280;59071;42.138;24.768;2024-01-25T01:30:01;99868.91;;;6.47;59.97
71151;BME280;59071;42.138;24.768;2024-01-25T01:32:26;99865.06;;;6.26;60.70
71151;BME280;59071;42.138;24.768;2024-01-25T01:34:51;99870.75;;;6.46;59.56
71151;BME280;59071;42.138;24.768;2024-01-25T01:37:17;99868.19;;;6.61;59.17
71151;BME280;59071;42.138;24.768;2024-01-25T01:39:42;99858.09;;;6.65;58.68
71151;BME280;59071;42.138;24.768;2024-01-25T01:42:07;99872.53;;;6.54;57.94
71151;BME280;59071;42.138;24.768;2024-01-25T01:44:33;99867.47;;;6.68;56.67
71151;BME280;59071;42.138;24.768;2024-01-25T01:46:58;99857.13;;;6.81;55.39
71151;BME280;59071;42.138;24.768;2024-01-25T01:49:25;99860.50;;;6.98;55.08
71151;BME280;59071;42.138;24.768;2024-01-25T01:51:51;99862.00;;;7.15;54.03
71151;BME280;59071;42.138;24.768;2024-01-25T01:54:17;99862.56;;;6.88;54.65
71151;BME280;59071;42.138;24.768;2024-01-25T01:56:43;99854.06;;;7.15;53.93
71151;BME280;59071;42.138;24.768;2024-01-25T01:59:10;99861.66;;;7.18;53.28
71151;BME280;59071;42.138;24.768;2024-01-25T02:01:38;99856.16;;;7.43;52.96
71151;BME280;59071;42.138;24.768;2024-01-25T02:04:04;99847.09;;;6.99;53.95
71151;BME280;59071;42.138;24.768;2024-01-25T02:06:30;99841.31;;;7.19;53.69
71151;BME280;59071;42.138;24.768;2024-01-25T02:08:55;99843.31;;;7.17;54.19
71151;BME280;59071;42.138;24.768;2024-01-25T02:11:24;99844.59;;;7.21;53.51
71151;BME280;59071;42.138;24.768;2024-01-25T02:13:49;99836.13;;;7.40;52.95
71151;BME280;59071;42.138;24.768;2024-01-25T02:16:15;99836.88;;;7.49;52.94
71151;BME280;59071;42.138;24.768;2024-01-25T02:18:41;99827.00;;;7.28;53.64
71151;BME280;59071;42.138;24.768;2024-01-25T02:21:07;99829.13;;;7.10;54.50
71151;BME280;59071;42.138;24.768;2024-01-25T02:23:32;99831.44;;;7.13;54.79
71151;BME280;59071;42.138;24.768;2024-01-25T02:25:57;99823.50;;;7.13;55.00
71151;BME280;59071;42.138;24.768;2024-01-25T02:28:23;99826.69;;;7.23;55.32
71151;BME280;59071;42.138;24.768;2024-01-25T02:30:48;99818.91;;;7.44;55.25
71151;BME280;59071;42.138;24.768;2024-01-25T02:33:14;99816.44;;;7.58;55.12
71151;BME280;59071;42.138;24.768;2024-01-25T02:35:39;99807.94;;;7.62;55.18
71151;BME280;59071;42.138;24.768;2024-01-25T02:38:04;99804.66;;;7.90;55.27
71151;BME280;59071;42.138;24.768;2024-01-25T02:40:30;99779.44;;;7.79;55.40
71151;BME280;59071;42.138;24.768;2024-01-25T02:42:55;99802.50;;;8.15;55.34
71151;BME280;59071;42.138;24.768;2024-01-25T02:45:23;99808.19;;;8.34;55.05
71151;BME280;59071;42.138;24.768;2024-01-25T02:47:49;99800.81;;;8.44;55.13
71151;BME280;59071;42.138;24.768;2024-01-25T02:50:15;99786.34;;;8.47;54.81
71151;BME280;59071;42.138;24.768;2024-01-25T02:52:40;99792.81;;;8.59;55.30
71151;BME280;59071;42.138;24.768;2024-01-25T02:55:06;99789.91;;;8.54;56.05
71151;BME280;59071;42.138;24.768;2024-01-25T02:57:31;99796.91;;;8.61;55.52
71151;BME280;59071;42.138;24.768;2024-01-25T02:59:57;99777.88;;;8.79;55.43
71151;BME280;59071;42.138;24.768;2024-01-25T03:02:23;99792.03;;;9.08;54.31
71151;BME280;59071;42.138;24.768;2024-01-25T03:04:48;99774.00;;;9.32;53.91
71151;BME280;59071;42.138;24.768;2024-01-25T03:07:14;99771.84;;;9.14;54.33
71151;BME280;59071;42.138;24.768;2024-01-25T03:09:39;99788.84;;;9.19;54.99
71151;BME280;59071;42.138;24.768;2024-01-25T03:12:05;99792.31;;;9.20;55.01
71151;BME280;59071;42.138;24.768;2024-01-25T03:14:30;99775.13;;;9.16;55.72
71151;BME280;59071;42.138;24.768;2024-01-25T03:16:55;99776.50;;;9.40;55.71
71151;BME280;59071;42.138;24.768;2024-01-25T03:19:24;99783.75;;;9.25;56.11
71151;BME280;59071;42.138;24.768;2024-01-25T03:21:50;99788.78;;;9.41;56.25
71151;BME280;59071;42.138;24.768;2024-01-25T03:24:15;99776.41;;;9.27;56.56
71151;BME280;59071;42.138;24.768;2024-01-25T03:26:40;99769.84;;;9.57;56.45
71151;BME280;59071;42.138;24.768;2024-01-25T03:29:06;99758.38;;;9.50;56.33
71151;BME280;59071;42.138;24.768;2024-01-25T03:31:31;99758.16;;;9.87;56.18
71151;BME280;59071;42.138;24.768;2024-01-25T03:33:56;99754.69;;;9.51;56.65
71151;BME280;59071;42.138;24.768;2024-01-25T03:36:22;99772.25;;;9.46;56.99
71151;BME280;59071;42.138;24.768;2024-01-25T03:38:47;99759.22;;;9.57;56.25
71151;BME280;59071;42.138;24.768;2024-01-25T03:41:13;99769.22;;;9.55;56.73
71151;BME280;59071;42.138;24.768;2024-01-25T03:43:38;99768.97;;;9.44;56.80
71151;BME280;59071;42.138;24.768;2024-01-25T03:46:03;99767.81;;;9.25;57.01
71151;BME280;59071;42.138;24.768;2024-01-25T03:48:30;99764.44;;;9.37;56.24
71151;BME280;59071;42.138;24.768;2024-01-25T03:50:55;99775.66;;;9.33;55.87
71151;BME280;59071;42.138;24.768;2024-01-25T03:53:22;99791.47;;;9.48;54.69
71151;BME280;59071;42.138;24.768;2024-01-25T03:55:47;99794.19;;;9.26;54.86
71151;BME280;59071;42.138;24.768;2024-01-25T03:58:14;99797.38;;;9.15;54.74
71151;BME280;59071;42.138;24.768;2024-01-25T04:00:40;99794.16;;;9.19;54.86
71151;BME280;59071;42.138;24.768;2024-01-25T04:03:05;99800.88;;;9.50;53.82
71151;BME280;59071;42.138;24.768;2024-01-25T04:05:30;99785.63;;;9.31;54.53
71151;BME280;59071;42.138;24.768;2024-01-25T04:07:56;99799.47;;;9.19;55.29
71151;BME280;59071;42.138;24.768;2024-01-25T04:10:21;99778.00;;;9.21;55.01
71151;BME280;59071;42.138;24.768;2024-01-25T04:12:47;99774.28;;;9.15;55.80
71151;BME280;59071;42.138;24.768;2024-01-25T04:15:12;99763.88;;;9.49;55.23
71151;BME280;59071;42.138;24.768;2024-01-25T04:17:38;99771.94;;;9.62;55.02
71151;BME280;59071;42.138;24.768;2024-01-25T04:20:03;99765.88;;;9.75;54.51
71151;BME280;59071;42.138;24.768;2024-01-25T04:22:29;99769.06;;;10.05;53.25
71151;BME280;59071;42.138;24.768;2024-01-25T04:24:55;99773.84;;;9.82;53.83
71151;BME280;59071;42.138;24.768;2024-01-25T04:27:20;99796.09;;;9.74;53.92
71151;BME280;59071;42.138;24.768;2024-01-25T04:29:45;99806.00;;;9.87;54.19
71151;BME280;59071;42.138;24.768;2024-01-25T04:32:12;99821.13;;;9.86;54.28
71151;BME280;59071;42.138;24.768;2024-01-25T04:34:37;99829.31;;;9.91;53.99
71151;BME280;59071;42.138;24.768;2024-01-25T04:37:03;99825.84;;;9.97;53.93
71151;BME280;59071;42.138;24.768;2024-01-25T04:39:28;99815.88;;;10.06;53.82
71151;BME280;59071;42.138;24.768;2024-01-25T04:41:54;99805.69;;;10.16;53.55
71151;BME280;59071;42.138;24.768;2024-01-25T04:44:19;99818.31;;;10.01;54.69
71151;BME280;59071;42.138;24.768;2024-01-25T04:46:45;99808.53;;;10.02;54.88
71151;BME280;59071;42.138;24.768;2024-01-25T04:49:10;99797.78;;;9.82;55.27
71151;BME280;59071;42.138;24.768;2024-01-25T04:51:36;99809.81;;;10.26;54.00
71151;BME280;59071;42.138;24.768;2024-01-25T04:54:01;99799.63;;;9.88;55.36
71151;BME280;59071;42.138;24.768;2024-01-25T04:56:28;99810.22;;;9.74;55.50
71151;BME280;59071;42.138;24.768;2024-01-25T04:58:53;99803.28;;;9.73;55.55
71151;BME280;59071;42.138;24.768;2024-01-25T05:01:18;99796.41;;;9.57;56.92
71151;BME280;59071;42.138;24.768;2024-01-25T05:03:44;99808.09;;;10.05;54.91
71151;BME280;59071;42.138;24.768;2024-01-25T05:06:09;99796.22;;;9.94;55.92
71151;BME280;59071;42.138;24.768;2024-01-25T05:08:34;99816.06;;;9.63;56.57
71151;BME280;59071;42.138;24.768;2024-01-25T05:11:00;99807.41;;;9.83;56.14
71151;BME280;59071;42.138;24.768;2024-01-25T05:13:25;99820.69;;;9.83;56.51
71151;BME280;59071;42.138;24.768;2024-01-25T05:15:51;99798.50;;;9.62;57.63
71151;BME280;59071;42.138;24.768;2024-01-25T05:18:16;99800.41;;;9.75;57.09
71151;BME280;59071;42.138;24.768;2024-01-25T05:20:41;99794.94;;;9.83;56.59
71151;BME280;59071;42.138;24.768;2024-01-25T05:23:07;99789.16;;;9.73;57.71
71151;BME280;59071;42.138;24.768;2024-01-25T05:25:32;99809.41;;;9.74;57.45
71151;BME280;59071;42.138;24.768;2024-01-25T05:27:58;99820.66;;;9.76;58.01
71151;BME280;59071;42.138;24.768;2024-01-25T05:30:24;99820.41;;;10.12;57.31
71151;BME280;59071;42.138;24.768;2024-01-25T05:32:50;99817.19;;;9.82;57.93
71151;BME280;59071;42.138;24.768;2024-01-25T05:35:16;99818.16;;;10.16;57.95
71151;BME280;59071;42.138;24.768;2024-01-25T05:37:42;99786.72;;;10.26;57.20
71151;BME280;59071;42.138;24.768;2024-01-25T05:40:08;99811.00;;;10.16;57.44
71151;BME280;59071;42.138;24.768;2024-01-25T05:42:35;99804.34;;;9.86;58.08
71151;BME280;59071;42.138;24.768;2024-01-25T05:45:01;99817.13;;;9.69;59.00
71151;BME280;59071;42.138;24.768;2024-01-25T05:47:26;99824.34;;;9.82;59.32
71151;BME280;59071;42.138;24.768;2024-01-25T05:49:51;99800.38;;;9.68;58.82
71151;BME280;59071;42.138;24.768;2024-01-25T05:52:17;99823.13;;;9.84;59.01
71151;BME280;59071;42.138;24.768;2024-01-25T05:54:42;99821.41;;;10.05;58.79
71151;BME280;59071;42.138;24.768;2024-01-25T05:57:09;99820.03;;;10.15;58.08
71151;BME280;59071;42.138;24.768;2024-01-25T05:59:34;99832.28;;;10.10;58.61
71151;BME280;59071;42.138;24.768;2024-01-25T06:01:59;99834.91;;;10.51;56.83
71151;BME280;59071;42.138;24.768;2024-01-25T06:04:25;99838.53;;;10.30;57.37
71151;BME280;59071;42.138;24.768;2024-01-25T06:06:50;99830.97;;;10.34;57.89
71151;BME280;59071;42.138;24.768;2024-01-25T06:09:16;99846.09;;;10.33;57.40
71151;BME280;59071;42.138;24.768;2024-01-25T06:11:41;99859.63;;;10.32;57.92
71151;BME280;59071;42.138;24.768;2024-01-25T06:14:07;99863.16;;;10.11;58.37
71151;BME280;59071;42.138;24.768;2024-01-25T06:16:33;99870.47;;;10.02;59.27
71151;BME280;59071;42.138;24.768;2024-01-25T06:18:58;99874.69;;;9.90;59.82
71151;BME280;59071;42.138;24.768;2024-01-25T06:21:25;99883.09;;;9.93;59.56
71151;BME280;59071;42.138;24.768;2024-01-25T06:23:50;99888.94;;;9.75;59.40
71151;BME280;59071;42.138;24.768;2024-01-25T06:26:16;99889.47;;;9.64;60.16
71151;BME280;59071;42.138;24.768;2024-01-25T06:28:41;99883.88;;;9.81;60.05
71151;BME280;59071;42.138;24.768;2024-01-25T06:31:06;99884.16;;;9.64;60.84
71151;BME280;59071;42.138;24.768;2024-01-25T06:33:32;99886.53;;;9.81;60.35
71151;BME280;59071;42.138;24.768;2024-01-25T06:35:57;99865.38;;;9.66;60.34
71151;BME280;59071;42.138;24.768;2024-01-25T06:38:23;99864.22;;;9.47;60.84
71151;BME280;59071;42.138;24.768;2024-01-25T06:40:48;99874.13;;;9.59;60.44
71151;BME280;59071;42.138;24.768;2024-01-25T06:43:14;99879.81;;;9.56;60.23
71151;BME280;59071;42.138;24.768;2024-01-25T06:45:39;99879.63;;;9.58;59.88
71151;BME280;59071;42.138;24.768;2024-01-25T06:48:07;99887.06;;;9.69;59.58
71151;BME280;59071;42.138;24.768;2024-01-25T06:50:36;99883.53;;;9.62;58.90
71151;BME280;59071;42.138;24.768;2024-01-25T06:53:02;99882.47;;;9.91;57.53
71151;BME280;59071;42.138;24.768;2024-01-25T06:55:27;99872.97;;;10.45;55.46
71151;BME280;59071;42.138;24.768;2024-01-25T06:57:53;99887.31;;;10.51;55.00
71151;BME280;59071;42.138;24.768;2024-01-25T07:00:18;99871.97;;;10.60;54.54
71151;BME280;59071;42.138;24.768;2024-01-25T07:02:46;99879.03;;;11.14;52.76
71151;BME280;59071;42.138;24.768;2024-01-25T07:05:11;99885.59;;;11.58;51.35
71151;BME280;59071;42.138;24.768;2024-01-25T07:07:37;99888.03;;;11.66;50.72
71151;BME280;59071;42.138;24.768;2024-01-25T07:10:04;99889.09;;;11.52;51.08
71151;BME280;59071;42.138;24.768;2024-01-25T07:12:30;99878.00;;;11.68;51.57
71151;BME280;59071;42.138;24.768;2024-01-25T07:14:55;99880.88;;;11.53;51.08
71151;BME280;59071;42.138;24.768;2024-01-25T07:17:21;99886.63;;;11.50;51.79
71151;BME280;59071;42.138;24.768;2024-01-25T07:19:46;99877.19;;;11.48;51.34
71151;BME280;59071;42.138;24.768;2024-01-25T07:22:11;99886.00;;;11.22;52.70
71151;BME280;59071;42.138;24.768;2024-01-25T07:24:39;99897.50;;;11.49;51.19
71151;BME280;59071;42.138;24.768;2024-01-25T07:27:05;99888.84;;;11.00;52.79
71151;BME280;59071;42.138;24.768;2024-01-25T07:29:30;99895.41;;;11.11;52.90
71151;BME280;59071;42.138;24.768;2024-01-25T07:31:56;99904.22;;;11.11;53.18
71151;BME280;59071;42.138;24.768;2024-01-25T07:34:21;99897.28;;;11.24;52.55
71151;BME280;59071;42.138;24.768;2024-01-25T07:36:46;99912.06;;;11.60;51.39
71151;BME280;59071;42.138;24.768;2024-01-25T07:39:12;99908.94;;;11.76;50.69
71151;BME280;59071;42.138;24.768;2024-01-25T07:41:37;99907.34;;;11.62;51.07
71151;BME280;59071;42.138;24.768;2024-01-25T07:44:02;99908.13;;;11.69;50.39
71151;BME280;59071;42.138;24.768;2024-01-25T07:46:28;99904.66;;;11.68;49.90
71151;BME280;59071;42.138;24.768;2024-01-25T07:48:53;99911.44;;;11.31;50.23
71151;BME280;59071;42.138;24.768;2024-01-25T07:51:19;99911.84;;;11.28;50.47
71151;BME280;59071;42.138;24.768;2024-01-25T07:53:44;99908.78;;;11.44;49.35
71151;BME280;59071;42.138;24.768;2024-01-25T07:56:10;99907.91;;;11.70;49.48
71151;BME280;59071;42.138;24.768;2024-01-25T07:58:36;99917.69;;;12.23;48.76
71151;BME280;59071;42.138;24.768;2024-01-25T08:01:06;99916.00;;;12.42;47.58
71151;BME280;59071;42.138;24.768;2024-01-25T08:03:32;99915.03;;;12.75;47.08
71151;BME280;59071;42.138;24.768;2024-01-25T08:06:01;99907.13;;;12.48;48.01
71151;BME280;59071;42.138;24.768;2024-01-25T08:08:28;99902.03;;;13.17;46.39
71151;BME280;59071;42.138;24.768;2024-01-25T08:10:53;99897.00;;;13.34;45.99
71151;BME280;59071;42.138;24.768;2024-01-25T08:13:19;99898.03;;;13.58;45.42
71151;BME280;59071;42.138;24.768;2024-01-25T08:15:44;99890.50;;;13.23;45.83
71151;BME280;59071;42.138;24.768;2024-01-25T08:18:10;99889.00;;;13.02;45.65
71151;BME280;59071;42.138;24.768;2024-01-25T08:20:37;99885.66;;;13.07;46.03
71151;BME280;59071;42.138;24.768;2024-01-25T08:23:02;99889.72;;;13.16;46.05
71151;BME280;59071;42.138;24.768;2024-01-25T08:25:28;99886.16;;;13.22;45.67
71151;BME280;59071;42.138;24.768;2024-01-25T08:27:53;99877.06;;;13.37;45.68
71151;BME280;59071;42.138;24.768;2024-01-25T08:30:18;99878.13;;;13.29;45.21
71151;BME280;59071;42.138;24.768;2024-01-25T08:32:44;99869.59;;;13.14;45.62
71151;BME280;59071;42.138;24.768;2024-01-25T08:35:09;99866.97;;;13.39;45.52
71151;BME280;59071;42.138;24.768;2024-01-25T08:37:35;99861.63;;;13.07;45.52
71151;BME280;59071;42.138;24.768;2024-01-25T08:40:03;99869.16;;;13.17;45.72
71151;BME280;59071;42.138;24.768;2024-01-25T08:42:31;99850.25;;;12.86;46.15
71151;BME280;59071;42.138;24.768;2024-01-25T08:44:56;99848.19;;;12.88;46.29
71151;BME280;59071;42.138;24.768;2024-01-25T08:47:22;99845.44;;;12.70;46.68
71151;BME280;59071;42.138;24.768;2024-01-25T08:49:47;99844.22;;;12.66;46.85
71151;BME280;59071;42.138;24.768;2024-01-25T08:52:12;99854.22;;;13.09;46.37
71151;BME280;59071;42.138;24.768;2024-01-25T08:54:38;99846.09;;;13.22;45.73
71151;BME280;59071;42.138;24.768;2024-01-25T08:57:04;99845.91;;;12.92;45.92
71151;BME280;59071;42.138;24.768;2024-01-25T08:59:31;99849.84;;;12.83;46.26
71151;BME280;59071;42.138;24.768;2024-01-25T09:01:58;99854.88;;;13.04;46.24
71151;BME280;59071;42.138;24.768;2024-01-25T09:04:23;99855.25;;;13.08;45.73
71151;BME280;59071;42.138;24.768;2024-01-25T09:06:49;99856.84;;;12.84;45.92
71151;BME280;59071;42.138;24.768;2024-01-25T09:09:14;99846.31;;;12.57;46.71
71151;BME280;59071;42.138;24.768;2024-01-25T09:11:39;99886.16;;;12.90;46.00
71151;BME280;59071;42.138;24.768;2024-01-25T09:14:05;99859.69;;;12.89;45.50
71151;BME280;59071;42.138;24.768;2024-01-25T09:16:30;99860.63;;;13.01;45.26
71151;BME280;59071;42.138;24.768;2024-01-25T09:18:56;99877.22;;;12.78;45.48
71151;BME280;59071;42.138;24.768;2024-01-25T09:21:21;99858.66;;;12.90;45.44
71151;BME280;59071;42.138;24.768;2024-01-25T09:23:46;99870.16;;;12.59;46.39
71151;BME280;59071;42.138;24.768;2024-01-25T09:26:12;99862.53;;;12.62;46.28
71151;BME280;59071;42.138;24.768;2024-01-25T09:28:37;99877.63;;;12.75;45.69
71151;BME280;59071;42.138;24.768;2024-01-25T09:31:03;99872.97;;;12.64;45.96
71151;BME280;59071;42.138;24.768;2024-01-25T09:33:29;99882.50;;;12.46;46.15
71151;BME280;59071;42.138;24.768;2024-01-25T09:35:55;99879.44;;;12.43;46.06
71151;BME280;59071;42.138;24.768;2024-01-25T09:38:21;99877.03;;;12.73;45.96
71151;BME280;59071;42.138;24.768;2024-01-25T09:40:46;99866.78;;;13.02;45.34
71151;BME280;59071;42.138;24.768;2024-01-25T09:43:11;99876.56;;;12.83;45.15
71151;BME280;59071;42.138;24.768;2024-01-25T09:45:37;99887.84;;;12.85;45.46
71151;BME280;59071;42.138;24.768;2024-01-25T09:48:03;99874.66;;;12.97;44.85
71151;BME280;59071;42.138;24.768;2024-01-25T09:50:31;99878.13;;;12.97;45.14
71151;BME280;59071;42.138;24.768;2024-01-25T09:52:59;99884.63;;;12.76;44.91
71151;BME280;59071;42.138;24.768;2024-01-25T09:55:25;99874.44;;;12.60;44.73
71151;BME280;59071;42.138;24.768;2024-01-25T09:57:53;99867.56;;;12.39;45.75
71151;BME280;59071;42.138;24.768;2024-01-25T10:00:22;99872.19;;;12.11;46.61
71151;BME280;59071;42.138;24.768;2024-01-25T10:02:48;99876.94;;;12.55;45.72
71151;BME280;59071;42.138;24.768;2024-01-25T10:05:17;99864.63;;;12.54;45.30
71151;BME280;59071;42.138;24.768;2024-01-25T10:07:44;99867.41;;;12.27;46.15
71151;BME280;59071;42.138;24.768;2024-01-25T10:10:11;99882.00;;;12.18;46.06
71151;BME280;59071;42.138;24.768;2024-01-25T10:12:38;99869.81;;;12.42;45.76
71151;BME280;59071;42.138;24.768;2024-01-25T10:15:04;99856.53;;;12.28;46.09
71151;BME280;59071;42.138;24.768;2024-01-25T10:17:30;99860.81;;;12.29;46.12
71151;BME280;59071;42.138;24.768;2024-01-25T10:19:56;99861.41;;;12.77;44.73
71151;BME280;59071;42.138;24.768;2024-01-25T10:22:21;99873.09;;;12.82;44.92
71151;BME280;59071;42.138;24.768;2024-01-25T10:24:47;99851.38;;;12.72;44.62
71151;BME280;59071;42.138;24.768;2024-01-25T10:27:15;99858.22;;;12.61;44.58
71151;BME280;59071;42.138;24.768;2024-01-25T10:29:41;99841.75;;;12.26;45.74
71151;BME280;59071;42.138;24.768;2024-01-25T10:32:08;99856.63;;;12.47;45.54
71151;BME280;59071;42.138;24.768;2024-01-25T10:34:36;99852.66;;;12.24;45.64
71151;BME280;59071;42.138;24.768;2024-01-25T10:37:06;99851.59;;;12.25;45.85
71151;BME280;59071;42.138;24.768;2024-01-25T10:39:33;99841.69;;;12.39;45.85
71151;BME280;59071;42.138;24.768;2024-01-25T10:41:59;99844.25;;;12.21;45.59
71151;BME280;59071;42.138;24.768;2024-01-25T10:44:25;99829.50;;;12.05;46.65
71151;BME280;59071;42.138;24.768;2024-01-25T10:46:51;99834.13;;;12.29;45.85
71151;BME280;59071;42.138;24.768;2024-01-25T10:49:17;99827.59;;;12.64;44.11
71151;BME280;59071;42.138;24.768;2024-01-25T10:51:44;99825.84;;;12.44;44.48
71151;BME280;59071;42.138;24.768;2024-01-25T10:54:14;99833.06;;;12.37;44.93
71151;BME280;59071;42.138;24.768;2024-01-25T10:56:43;99830.41;;;12.37;44.70
71151;BME280;59071;42.138;24.768;2024-01-25T10:59:13;99811.22;;;12.15;45.01
71151;BME280;59071;42.138;24.768;2024-01-25T11:01:43;99821.06;;;12.21;44.84
71151;BME280;59071;42.138;24.768;2024-01-25T11:04:18;99822.84;;;12.27;43.81
71151;BME280;59071;42.138;24.768;2024-01-25T11:06:44;99827.03;;;12.10;44.12
71151;BME280;59071;42.138;24.768;2024-01-25T11:09:16;99822.34;;;12.05;44.09
71151;BME280;59071;42.138;24.768;2024-01-25T11:11:44;99828.81;;;12.29;44.19
71151;BME280;59071;42.138;24.768;2024-01-25T11:14:13;99833.38;;;12.16;44.06
71151;BME280;59071;42.138;24.768;2024-01-25T11:16:39;99840.38;;;12.17;44.13
71151;BME280;59071;42.138;24.768;2024-01-25T11:19:16;99812.78;;;12.36;44.00
71151;BME280;59071;42.138;24.768;2024-01-25T11:21:46;99822.47;;;12.24;44.29
71151;BME280;59071;42.138;24.768;2024-01-25T11:24:12;99818.25;;;12.48;43.55
71151;BME280;59071;42.138;24.768;2024-01-25T11:26:39;99825.88;;;12.76;42.97
71151;BME280;59071;42.138;24.768;2024-01-25T11:29:04;99828.38;;;12.71;42.82
71151;BME280;59071;42.138;24.768;2024-01-25T11:31:30;99824.97;;;12.57;43.51
71151;BME280;59071;42.138;24.768;2024-01-25T11:33:58;99835.31;;;12.79;43.13
71151;BME280;59071;42.138;24.768;2024-01-25T11:36:28;99826.75;;;12.70;42.81
71151;BME280;59071;42.138;24.768;2024-01-25T11:38:53;99832.19;;;12.57;43.56
71151;BME280;59071;42.138;24.768;2024-01-25T11:41:19;99836.00;;;12.67;44.11
71151;BME280;59071;42.138;24.768;2024-01-25T11:43:45;99828.50;;;12.51;44.16
71151;BME280;59071;42.138;24.768;2024-01-25T11:46:10;99832.53;;;12.60;44.05
71151;BME280;59071;42.138;24.768;2024-01-25T11:48:42;99823.63;;;12.73;43.84
71151;BME280;59071;42.138;24.768;2024-01-25T11:51:10;99825.19;;;13.13;43.62
71151;BME280;59071;42.138;24.768;2024-01-25T11:53:36;99817.84;;;13.08;43.75
71151;BME280;59071;42.138;24.768;2024-01-25T11:56:03;99808.00;;;13.02;44.30
71151;BME280;59071;42.138;24.768;2024-01-25T11:58:30;99818.69;;;13.34;43.73
71151;BME280;59071;42.138;24.768;2024-01-25T12:00:55;99804.22;;;13.41;43.51
71151;BME280;59071;42.138;24.768;2024-01-25T12:03:21;99797.00;;;13.17;43.73
71151;BME280;59071;42.138;24.768;2024-01-25T12:05:46;99797.25;;;13.59;43.58
71151;BME280;59071;42.138;24.768;2024-01-25T12:08:13;99790.63;;;13.43;43.26
71151;BME280;59071;42.138;24.768;2024-01-25T12:10:39;99784.09;;;13.39;43.47
71151;BME280;59071;42.138;24.768;2024-01-25T12:13:08;99789.31;;;13.71;43.12
71151;BME280;59071;42.138;24.768;2024-01-25T12:15:34;99802.22;;;13.37;43.53
71151;BME280;59071;42.138;24.768;2024-01-25T12:18:00;99796.56;;;13.20;43.33
71151;BME280;59071;42.138;24.768;2024-01-25T12:20:26;99806.97;;;13.28;43.13
71151;BME280;59071;42.138;24.768;2024-01-25T12:22:52;99807.00;;;13.03;43.31
71151;BME280;59071;42.138;24.768;2024-01-25T12:25:17;99803.84;;;12.81;44.04
71151;BME280;59071;42.138;24.768;2024-01-25T12:27:43;99797.63;;;12.62;43.51
71151;BME280;59071;42.138;24.768;2024-01-25T12:30:12;99790.53;;;12.49;43.91
71151;BME280;59071;42.138;24.768;2024-01-25T12:32:37;99804.41;;;12.64;43.86
71151;BME280;59071;42.138;24.768;2024-01-25T12:35:03;99807.78;;;12.46;43.75
71151;BME280;59071;42.138;24.768;2024-01-25T12:37:31;99784.66;;;12.33;43.18
71151;BME280;59071;42.138;24.768;2024-01-25T12:39:57;99792.59;;;13.04;42.70
71151;BME280;59071;42.138;24.768;2024-01-25T12:42:22;99782.00;;;12.90;42.73
71151;BME280;59071;42.138;24.768;2024-01-25T12:44:50;99781.75;;;12.99;43.15
71151;BME280;59071;42.138;24.768;2024-01-25T12:47:16;99783.75;;;12.78;43.19